createdAt,value
2023-05-05T00:00:36.634Z,1004.44
2023-05-05T00:01:36.589Z,1004.43
2023-05-05T00:02:36.787Z,1004.42
2023-05-05T00:03:36.645Z,1004.42
2023-05-05T00:04:36.571Z,1004.42
2023-05-05T00:05:36.551Z,1004.41
2023-05-05T00:06:36.552Z,1004.39
2023-05-05T00:07:36.542Z,1004.36
2023-05-05T00:08:36.552Z,1004.35
2023-05-05T00:09:36.544Z,1004.36
2023-05-05T00:10:36.499Z,1004.37
2023-05-05T00:11:36.499Z,1004.38
2023-05-05T00:12:36.524Z,1004.39
2023-05-05T00:13:36.461Z,1004.38
2023-05-05T00:14:36.495Z,1004.37
2023-05-05T00:15:36.452Z,1004.36
2023-05-05T00:16:36.501Z,1004.36
2023-05-05T00:17:36.432Z,1004.36
2023-05-05T00:18:36.435Z,1004.37
2023-05-05T00:19:36.417Z,1004.38
2023-05-05T00:20:36.488Z,1004.39
2023-05-05T00:21:36.411Z,1004.38
2023-05-05T00:22:36.387Z,1004.37
2023-05-05T00:23:36.367Z,1004.37
2023-05-05T00:24:36.361Z,1004.35
2023-05-05T00:25:36.367Z,1004.35
2023-05-05T00:26:36.390Z,1004.35
2023-05-05T00:27:37.415Z,1004.36
2023-05-05T00:28:36.324Z,1004.38
2023-05-05T00:29:36.313Z,1004.39
2023-05-05T00:30:36.302Z,1004.38
2023-05-05T00:31:36.349Z,1004.36
2023-05-05T00:32:36.364Z,1004.35
2023-05-05T00:33:36.253Z,1004.35
2023-05-05T00:34:36.259Z,1004.35
2023-05-05T00:35:36.262Z,1004.34
2023-05-05T00:36:36.228Z,1004.33
2023-05-05T00:37:36.229Z,1004.31
2023-05-05T00:38:36.247Z,1004.31
2023-05-05T00:39:36.181Z,1004.30
2023-05-05T00:40:36.195Z,1004.30
2023-05-05T00:41:36.167Z,1004.30
2023-05-05T00:42:36.200Z,1004.31
2023-05-05T00:43:36.146Z,1004.32
2023-05-05T00:44:36.269Z,1004.33
2023-05-05T00:45:36.126Z,1004.32
2023-05-05T00:46:36.178Z,1004.32
2023-05-05T00:47:36.134Z,1004.32
2023-05-05T00:48:36.115Z,1004.32
2023-05-05T00:49:36.155Z,1004.33
2023-05-05T00:50:36.091Z,1004.33
2023-05-05T00:51:36.074Z,1004.32
2023-05-05T00:52:36.087Z,1004.32
2023-05-05T00:53:36.037Z,1004.33
2023-05-05T00:54:36.065Z,1004.31
2023-05-05T00:55:36.038Z,1004.29
2023-05-05T00:56:36.014Z,1004.25
2023-05-05T00:57:36.000Z,1004.22
2023-05-05T00:58:36.010Z,1004.20
2023-05-05T00:59:35.993Z,1004.19
2023-05-05T01:00:35.972Z,1004.20
2023-05-05T01:01:36.050Z,1004.21
2023-05-05T01:02:36.744Z,1004.22
2023-05-05T01:03:36.053Z,1004.24
2023-05-05T01:04:35.948Z,1004.25
2023-05-05T01:05:35.925Z,1004.25
2023-05-05T01:06:35.918Z,1004.26
2023-05-05T01:07:35.908Z,1004.26
2023-05-05T01:08:35.887Z,1004.25
2023-05-05T01:09:35.882Z,1004.23
2023-05-05T01:10:35.870Z,1004.22
2023-05-05T01:11:35.866Z,1004.22
2023-05-05T01:12:35.913Z,1004.20
2023-05-05T01:13:35.836Z,1004.18
2023-05-05T01:14:35.840Z,1004.16
2023-05-05T01:15:35.806Z,1004.15
2023-05-05T01:16:35.926Z,1004.13
2023-05-05T01:17:35.828Z,1004.12
2023-05-05T01:18:35.817Z,1004.11
2023-05-05T01:19:35.789Z,1004.11
2023-05-05T01:20:35.756Z,1004.10
2023-05-05T01:21:35.758Z,1004.09
2023-05-05T01:22:35.726Z,1004.08
2023-05-05T01:23:35.820Z,1004.09
2023-05-05T01:24:35.728Z,1004.10
2023-05-05T01:25:35.721Z,1004.11
2023-05-05T01:26:35.697Z,1004.10
2023-05-05T01:27:35.692Z,1004.09
2023-05-05T01:28:35.650Z,1004.07
2023-05-05T01:29:35.670Z,1004.04
2023-05-05T06:00:44.871Z,1005.08
2023-05-05T06:01:45.830Z,1005.09
2023-05-05T06:02:45.903Z,1005.09
2023-05-05T06:03:45.955Z,1005.10
2023-05-05T06:04:45.798Z,1005.10
2023-05-05T06:05:45.818Z,1005.11
2023-05-05T06:06:45.786Z,1005.11
2023-05-05T06:07:45.765Z,1005.11
2023-05-05T06:08:45.729Z,1005.12
2023-05-05T06:09:45.749Z,1005.16
2023-05-05T06:10:45.739Z,1005.18
2023-05-05T06:11:45.743Z,1005.19
2023-05-05T06:12:45.764Z,1005.19
2023-05-05T06:13:45.696Z,1005.20
2023-05-05T06:14:45.668Z,1005.19
2023-05-05T06:15:45.712Z,1005.21
2023-05-05T06:16:45.660Z,1005.21
2023-05-05T06:17:45.655Z,1005.24
2023-05-05T06:18:45.672Z,1005.24
2023-05-05T06:19:45.627Z,1005.25
2023-05-05T06:20:45.618Z,1005.26
2023-05-05T06:21:45.606Z,1005.27
2023-05-05T06:22:45.609Z,1005.28
2023-05-05T06:23:45.583Z,1005.31
2023-05-05T06:24:45.579Z,1005.31
2023-05-05T06:25:45.555Z,1005.32
2023-05-05T06:26:45.550Z,1005.32
2023-05-05T06:27:45.549Z,1005.32
2023-05-05T06:28:45.522Z,1005.32
2023-05-05T06:29:45.522Z,1005.33
2023-05-05T06:30:45.518Z,1005.32
2023-05-05T06:31:45.553Z,1005.33
2023-05-05T06:32:45.550Z,1005.32
2023-05-05T06:33:45.488Z,1005.31
2023-05-05T06:34:45.463Z,1005.31
2023-05-05T06:35:45.462Z,1005.31
2023-05-05T06:36:45.495Z,1005.28
2023-05-05T06:37:45.451Z,1005.27
2023-05-05T06:38:45.419Z,1005.26
2023-05-05T06:39:45.419Z,1005.25
2023-05-05T06:40:45.397Z,1005.26
2023-05-05T06:41:45.396Z,1005.26
2023-05-05T06:42:45.394Z,1005.28
2023-05-05T06:43:45.380Z,1005.27
2023-05-05T06:44:45.352Z,1005.27
2023-05-05T06:45:45.348Z,1005.25
2023-05-05T06:46:45.341Z,1005.25
2023-05-05T06:47:45.350Z,1005.22
2023-05-05T06:48:45.332Z,1005.21
2023-05-05T06:49:45.320Z,1005.19
2023-05-05T06:50:45.287Z,1005.17
2023-05-05T06:51:45.294Z,1005.17
2023-05-05T06:52:45.256Z,1005.17
2023-05-05T06:53:45.278Z,1005.17
2023-05-05T06:54:45.280Z,1005.18
2023-05-05T06:55:45.277Z,1005.19
2023-05-05T06:56:45.319Z,1005.21
2023-05-05T06:57:45.245Z,1005.22
2023-05-05T06:58:45.211Z,1005.23
2023-05-05T06:59:45.204Z,1005.24
2023-05-05T07:00:45.211Z,1005.24
2023-05-05T07:01:45.208Z,1005.25
2023-05-05T07:02:45.173Z,1005.26
2023-05-05T07:03:45.282Z,1005.27
2023-05-05T07:04:45.136Z,1005.27
2023-05-05T07:05:45.145Z,1005.29
2023-05-05T07:06:45.124Z,1005.28
2023-05-05T07:07:45.129Z,1005.29
2023-05-05T07:08:45.102Z,1005.30
2023-05-05T07:09:45.115Z,1005.31
2023-05-05T07:10:45.073Z,1005.32
2023-05-05T07:11:45.076Z,1005.31
2023-05-05T07:12:45.107Z,1005.32
2023-05-05T07:13:45.081Z,1005.31
2023-05-05T07:14:45.026Z,1005.31
2023-05-05T07:15:45.039Z,1005.30
2023-05-05T07:16:45.016Z,1005.29
2023-05-05T07:17:45.031Z,1005.29
2023-05-05T07:18:45.014Z,1005.28
2023-05-05T07:19:45.033Z,1005.28
2023-05-05T07:20:45.001Z,1005.28
2023-05-05T07:22:44.947Z,1005.31
2023-05-05T07:23:44.954Z,1005.30
2023-05-05T07:24:44.969Z,1005.32
2023-05-05T07:25:44.933Z,1005.32
2023-05-05T07:26:44.909Z,1005.33
2023-05-05T07:27:44.898Z,1005.31
2023-05-05T07:28:44.897Z,1005.31
2023-05-05T07:29:44.878Z,1005.30
2023-05-05T07:30:44.873Z,1005.31
2023-05-05T07:31:44.904Z,1005.33
2023-05-05T07:32:44.868Z,1005.32
2023-05-05T07:33:44.889Z,1005.35
2023-05-05T07:34:44.813Z,1005.35
2023-05-05T07:35:44.817Z,1005.39
2023-05-05T07:36:44.818Z,1005.40
2023-05-05T07:37:44.818Z,1005.38
2023-05-05T07:38:44.781Z,1005.38
2023-05-05T07:39:44.780Z,1005.36
2023-05-05T07:40:44.741Z,1005.36
2023-05-05T07:41:44.768Z,1005.35
2023-05-05T07:42:44.762Z,1005.36
2023-05-05T07:43:44.862Z,1005.33
2023-05-05T07:44:44.723Z,1005.34
2023-05-05T07:45:44.737Z,1005.33
2023-05-05T07:46:44.690Z,1005.33
2023-05-05T07:47:44.724Z,1005.32
2023-05-05T07:48:44.727Z,1005.32
2023-05-05T07:49:44.701Z,1005.29
2023-05-05T07:50:44.650Z,1005.28
2023-05-05T07:51:44.638Z,1005.27
2023-05-05T07:52:50.007Z,1005.24
2023-05-05T07:53:44.624Z,1005.23
2023-05-05T07:54:44.650Z,1005.23
2023-05-05T07:55:44.587Z,1005.23
2023-05-05T07:56:44.617Z,1005.21
2023-05-05T07:57:44.574Z,1005.20
2023-05-05T07:58:44.592Z,1005.19
2023-05-05T07:59:44.570Z,1005.20
2023-05-05T08:00:44.638Z,1005.21
2023-05-05T08:01:44.581Z,1005.25
2023-05-05T08:02:44.610Z,1005.27
2023-05-05T08:03:44.599Z,1005.33
2023-05-05T08:04:44.642Z,1005.27
2023-05-05T08:05:44.521Z,1005.29
2023-05-05T08:06:44.481Z,1005.29
2023-05-05T08:07:44.465Z,1005.32
2023-05-05T08:08:44.455Z,1005.26
2023-05-05T08:09:44.441Z,1005.26
2023-05-05T08:10:44.455Z,1005.25
2023-05-05T08:11:44.453Z,1005.24
2023-05-05T08:12:44.443Z,1005.21
2023-05-05T08:13:44.393Z,1005.21
2023-05-05T08:14:44.418Z,1005.19
2023-05-05T08:15:44.412Z,1005.19
2023-05-05T08:16:44.421Z,1005.19
2023-05-05T08:17:44.386Z,1005.19
2023-05-05T08:18:44.355Z,1005.20
2023-05-05T08:19:44.347Z,1005.21
2023-05-05T08:20:44.335Z,1005.22
2023-05-05T08:21:44.299Z,1005.24
2023-05-05T08:22:44.376Z,1005.23
2023-05-05T08:23:44.316Z,1005.22
2023-05-05T08:24:44.314Z,1005.21
2023-05-05T08:25:44.286Z,1005.20
2023-05-05T08:26:44.275Z,1005.19
2023-05-05T08:27:44.253Z,1005.18
2023-05-05T08:28:44.266Z,1005.19
2023-05-05T08:29:44.221Z,1005.19
2023-05-05T08:30:44.234Z,1005.20
2023-05-05T08:31:44.272Z,1005.19
2023-05-05T08:32:44.245Z,1005.20
2023-05-05T08:33:44.181Z,1005.20
2023-05-05T08:34:44.224Z,1005.21
2023-05-05T08:35:44.167Z,1005.21
2023-05-05T08:36:44.193Z,1005.22
2023-05-05T08:37:44.149Z,1005.21
2023-05-05T08:38:44.153Z,1005.21
2023-05-05T08:39:44.164Z,1005.23
2023-05-05T08:40:44.181Z,1005.23
2023-05-05T08:41:44.111Z,1005.21
2023-05-05T08:42:44.106Z,1005.23
2023-05-05T08:43:44.086Z,1005.22
2023-05-05T08:44:44.078Z,1005.22
2023-05-05T08:45:44.062Z,1005.23
2023-05-05T08:46:44.132Z,1005.23
2023-05-05T08:47:44.058Z,1005.23
2023-05-05T08:48:44.043Z,1005.23
2023-05-05T08:49:44.014Z,1005.24
2023-05-05T08:50:44.014Z,1005.27
2023-05-05T08:51:44.013Z,1005.27
2023-05-05T08:52:44.706Z,1005.29
2023-05-05T08:53:43.964Z,1005.27
2023-05-05T08:54:43.984Z,1005.27
2023-05-05T08:55:43.956Z,1005.26
2023-05-05T08:56:43.969Z,1005.27
2023-05-05T08:57:43.925Z,1005.25
2023-05-05T08:58:43.940Z,1005.23
2023-05-05T08:59:43.895Z,1005.24
2023-05-05T09:00:43.923Z,1005.23
2023-05-05T09:01:43.881Z,1005.23
2023-05-05T09:02:44.034Z,1005.23
2023-05-05T09:03:43.862Z,1005.23
2023-05-05T09:04:43.895Z,1005.22
2023-05-05T09:05:43.840Z,1005.21
2023-05-05T09:06:43.856Z,1005.18
2023-05-05T09:07:43.820Z,1005.18
2023-05-05T09:08:43.835Z,1005.17
2023-05-05T09:09:43.798Z,1005.18
2023-05-05T09:10:43.827Z,1005.18
2023-05-05T09:11:43.791Z,1005.18
2023-05-05T09:12:43.831Z,1005.19
2023-05-05T09:13:43.785Z,1005.20
2023-05-05T09:14:43.772Z,1005.20
2023-05-05T09:15:43.730Z,1005.19
2023-05-05T09:16:43.783Z,1005.21
2023-05-05T09:17:43.805Z,1005.20
2023-05-05T09:18:43.715Z,1005.20
2023-05-05T09:19:43.687Z,1005.19
2023-05-05T09:20:43.706Z,1005.19
2023-05-05T09:21:43.685Z,1005.18
2023-05-05T09:22:43.692Z,1005.21
2023-05-05T09:23:43.659Z,1005.19
2023-05-05T09:24:43.659Z,1005.20
2023-05-05T09:25:43.646Z,1005.19
2023-05-05T09:26:43.635Z,1005.16
2023-05-05T09:27:43.654Z,1005.15
2023-05-05T09:28:43.629Z,1005.14
2023-05-05T09:29:43.586Z,1005.13
2023-05-05T09:30:43.652Z,1005.13
2023-05-05T09:31:43.567Z,1005.12
2023-05-05T09:32:43.592Z,1005.11
2023-05-05T09:33:43.586Z,1005.09
2023-05-05T09:34:43.560Z,1005.10
2023-05-05T09:35:43.525Z,1005.09
2023-05-05T09:36:43.544Z,1005.11
2023-05-05T09:37:43.508Z,1005.07
2023-05-05T09:38:43.514Z,1005.07
2023-05-05T09:39:43.518Z,1005.06
2023-05-05T09:40:43.506Z,1005.07
2023-05-05T09:41:43.471Z,1005.05
2023-05-05T09:42:43.481Z,1005.07
2023-05-05T09:43:43.430Z,1005.05
2023-05-05T09:44:43.444Z,1005.05
2023-05-05T09:45:43.462Z,1005.04
2023-05-05T09:46:43.503Z,1005.06
2023-05-05T09:47:43.421Z,1005.03
2023-05-05T09:48:43.400Z,1005.02
2023-05-05T09:49:43.382Z,1005.02
2023-05-05T09:50:43.397Z,1004.99
2023-05-05T09:51:43.369Z,1004.97
2023-05-05T09:52:43.375Z,1004.98
2023-05-05T09:53:43.345Z,1004.97
2023-05-05T09:54:43.349Z,1004.93
2023-05-05T09:55:43.321Z,1004.95
2023-05-05T09:56:43.325Z,1004.94
2023-05-05T09:57:43.282Z,1004.92
2023-05-05T09:58:43.349Z,1004.88
2023-05-05T09:59:43.258Z,1004.86
2023-05-05T10:00:43.261Z,1004.86
2023-05-05T10:01:43.375Z,1004.82
2023-05-05T10:02:43.291Z,1004.85
2023-05-05T10:03:43.216Z,1004.84
2023-05-05T10:04:43.283Z,1004.87
2023-05-05T10:05:43.206Z,1004.85
2023-05-05T10:06:43.200Z,1004.85
2023-05-05T10:07:43.247Z,1004.80
2023-05-05T10:08:43.192Z,1004.79
2023-05-05T10:09:43.182Z,1004.79
2023-05-05T10:10:43.153Z,1004.78
2023-05-05T10:11:43.154Z,1004.80
2023-05-05T10:12:43.196Z,1004.79
2023-05-05T10:13:43.152Z,1004.79
2023-05-05T10:14:43.121Z,1004.77
2023-05-05T10:15:43.126Z,1004.73
2023-05-05T10:16:43.144Z,1004.73
2023-05-05T10:17:50.967Z,1004.68
2023-05-05T10:18:43.092Z,1004.62
2023-05-05T10:19:43.120Z,1004.63
2023-05-05T10:20:43.041Z,1004.64
2023-05-05T10:21:43.043Z,1004.63
2023-05-05T10:22:43.031Z,1004.61
2023-05-05T10:23:43.005Z,1004.58
2023-05-05T10:24:43.054Z,1004.54
2023-05-05T10:25:42.993Z,1004.53
2023-05-05T10:26:43.004Z,1004.52
2023-05-05T10:27:42.971Z,1004.54
2023-05-05T10:28:42.969Z,1004.48
2023-05-05T10:29:42.952Z,1004.50
2023-05-05T10:30:42.993Z,1004.47
2023-05-05T10:31:42.965Z,1004.45
2023-05-05T10:33:42.942Z,1004.40
2023-05-05T10:34:42.947Z,1004.40
2023-05-05T10:35:42.884Z,1004.35
2023-05-05T10:36:42.900Z,1004.35
2023-05-05T10:37:42.852Z,1004.35
2023-05-05T10:38:42.876Z,1004.34
2023-05-05T10:39:42.846Z,1004.35
2023-05-05T10:40:42.867Z,1004.35
2023-05-05T10:41:42.833Z,1004.35
2023-05-05T10:42:42.839Z,1004.31
2023-05-05T10:43:42.809Z,1004.31
2023-05-05T10:44:42.806Z,1004.31
2023-05-05T10:45:42.902Z,1004.28
2023-05-05T10:46:42.899Z,1004.24
2023-05-05T10:47:42.805Z,1004.23
2023-05-05T10:48:42.855Z,1004.24
2023-05-05T10:49:42.729Z,1004.22
2023-05-05T10:50:42.754Z,1004.27
2023-05-05T10:51:42.714Z,1004.23
2023-05-05T10:52:42.737Z,1004.22
2023-05-05T10:53:42.737Z,1004.22
2023-05-05T10:54:42.748Z,1004.22
2023-05-05T10:55:42.675Z,1004.24
2023-05-05T10:56:42.697Z,1004.25
2023-05-05T10:57:42.735Z,1004.22
2023-05-05T10:58:58.398Z,1004.36
2023-05-05T10:59:42.659Z,1004.24
2023-05-05T11:00:42.672Z,1004.21
2023-05-05T11:01:42.626Z,1004.20
2023-05-05T11:02:42.645Z,1004.15
2023-05-05T11:03:42.621Z,1004.08
2023-05-05T11:04:42.596Z,1004.12
2023-05-05T11:05:42.578Z,1004.14
2023-05-05T11:06:42.595Z,1004.11
2023-05-05T11:07:42.534Z,1004.10
2023-05-05T11:08:42.576Z,1004.12
2023-05-05T11:09:42.535Z,1004.13
2023-05-05T11:10:42.555Z,1004.15
2023-05-05T11:11:42.516Z,1004.16
2023-05-05T11:12:42.560Z,1004.09
2023-05-05T11:13:42.494Z,1004.10
2023-05-05T11:14:42.485Z,1004.09
2023-05-05T11:15:42.482Z,1004.12
2023-05-05T11:16:42.589Z,1004.04
2023-05-05T11:17:42.462Z,1004.03
2023-05-05T11:18:42.442Z,1004.05
2023-05-05T11:19:42.421Z,1003.99
2023-05-05T11:20:42.423Z,1003.97
2023-05-05T11:21:42.406Z,1004.01
2023-05-05T11:22:42.431Z,1004.01
2023-05-05T11:23:42.396Z,1004.01
2023-05-05T11:24:42.390Z,1003.97
2023-05-05T11:25:42.375Z,1003.97
2023-05-05T11:26:42.405Z,1003.96
2023-05-05T11:27:42.341Z,1004.02
2023-05-05T11:28:42.356Z,1003.98
2023-05-05T11:29:42.317Z,1003.93
2023-05-05T11:30:42.375Z,1003.92
2023-05-05T11:31:42.340Z,1003.87
2023-05-05T11:32:42.359Z,1003.87
2023-05-05T11:33:42.275Z,1003.93
2023-05-05T11:34:42.327Z,1003.87
2023-05-05T11:35:42.257Z,1003.90
2023-05-05T11:36:42.253Z,1003.91
2023-05-05T11:37:42.241Z,1003.90
2023-05-05T11:38:42.264Z,1003.85
2023-05-05T11:39:42.221Z,1003.83
2023-05-05T11:40:42.274Z,1003.84
2023-05-05T11:41:42.183Z,1003.84
2023-05-05T11:42:42.198Z,1003.87
2023-05-05T11:43:42.170Z,1003.87
2023-05-05T11:44:42.180Z,1003.88
2023-05-05T11:45:42.149Z,1003.92
2023-05-05T11:46:42.300Z,1003.85
2023-05-05T11:47:42.138Z,1003.80
2023-05-05T11:48:42.137Z,1003.83
2023-05-05T11:49:42.111Z,1003.83
2023-05-05T11:50:42.117Z,1003.83
2023-05-05T11:51:42.104Z,1003.96
2023-05-05T11:52:42.119Z,1003.81
2023-05-05T11:53:42.071Z,1003.80
2023-05-05T11:54:42.065Z,1003.80
2023-05-05T11:55:42.042Z,1003.72
2023-05-05T11:56:42.048Z,1003.78
2023-05-05T11:57:42.014Z,1003.93
2023-05-05T11:58:42.026Z,1003.77
2023-05-05T11:59:41.995Z,1003.76
2023-05-05T12:00:42.008Z,1003.73
2023-05-05T12:01:41.987Z,1003.69
2023-05-05T12:02:42.113Z,1003.68
2023-05-05T12:03:42.147Z,1003.70
2023-05-05T12:04:42.016Z,1003.64
2023-05-05T12:05:41.946Z,1003.63
2023-05-05T12:06:41.925Z,1003.58
2023-05-05T12:07:41.925Z,1003.56
2023-05-05T12:08:41.934Z,1003.56
2023-05-05T12:09:41.895Z,1003.57
2023-05-05T12:10:41.897Z,1003.54
2023-05-05T12:11:41.870Z,1003.59
2023-05-05T12:12:41.866Z,1003.59
2023-05-05T12:13:41.871Z,1003.65
2023-05-05T12:14:41.865Z,1003.55
2023-05-05T12:15:41.846Z,1003.52
2023-05-05T12:16:41.954Z,1003.50
2023-05-05T12:17:41.885Z,1003.51
2023-05-05T12:18:41.799Z,1003.55
2023-05-05T12:19:41.851Z,1003.52
2023-05-05T12:20:41.771Z,1003.56
2023-05-05T12:21:41.771Z,1003.58
2023-05-05T12:22:41.756Z,1003.55
2023-05-05T12:23:41.751Z,1003.52
2023-05-05T12:24:41.737Z,1003.44
2023-05-05T12:25:41.761Z,1003.50
2023-05-05T12:26:41.718Z,1003.57
2023-05-05T12:27:41.716Z,1003.56
2023-05-05T12:28:41.701Z,1003.50
2023-05-05T12:29:41.701Z,1003.49
2023-05-05T12:30:41.791Z,1003.46
2023-05-05T12:31:41.781Z,1003.49
2023-05-05T12:32:41.695Z,1003.49
2023-05-05T12:33:41.650Z,1003.45
2023-05-05T12:34:41.631Z,1003.47
2023-05-05T12:35:41.643Z,1003.44
2023-05-05T12:36:41.615Z,1003.41
2023-05-05T12:37:41.663Z,1003.45
2023-05-05T12:38:41.584Z,1003.44
2023-05-05T12:39:41.627Z,1003.41
2023-05-05T12:40:41.568Z,1003.39
2023-05-05T12:41:41.573Z,1003.47
2023-05-05T12:42:41.566Z,1003.40
2023-05-05T12:43:41.554Z,1003.41
2023-05-05T12:44:41.523Z,1003.46
2023-05-05T12:45:41.557Z,1003.42
2023-05-05T12:46:41.500Z,1003.36
2023-05-05T12:47:41.569Z,1003.40
2023-05-05T12:48:41.537Z,1003.45
2023-05-05T12:49:41.477Z,1003.47
2023-05-05T12:50:41.475Z,1003.42
2023-05-05T12:51:41.461Z,1003.36
2023-05-05T12:52:41.430Z,1003.38
2023-05-05T12:53:41.441Z,1003.33
2023-05-05T12:54:41.440Z,1003.31
2023-05-05T12:55:41.435Z,1003.32
2023-05-05T12:56:41.411Z,1003.27
2023-05-05T12:57:41.402Z,1003.32
2023-05-05T12:58:41.389Z,1003.38
2023-05-05T12:59:41.403Z,1003.25
2023-05-05T13:00:41.402Z,1003.26
2023-05-05T13:01:41.410Z,1003.22
2023-05-05T13:02:41.432Z,1003.22
2023-05-05T13:03:41.357Z,1003.29
2023-05-05T13:04:41.320Z,1003.20
2023-05-05T13:05:41.316Z,1003.21
2023-05-05T13:06:41.315Z,1003.09
2023-05-05T13:07:41.405Z,1003.22
2023-05-05T13:08:41.271Z,1003.16
2023-05-05T13:09:41.282Z,1003.06
2023-05-05T13:10:41.251Z,1003.06
2023-05-05T13:11:41.250Z,1003.01
2023-05-05T13:12:41.286Z,1003.00
2023-05-05T13:13:41.239Z,1003.00
2023-05-05T13:14:41.215Z,1003.01
2023-05-05T13:15:41.271Z,1003.03
2023-05-05T13:16:41.188Z,1003.01
2023-05-05T13:17:41.226Z,1003.02
2023-05-05T13:18:41.192Z,1002.96
2023-05-05T13:19:41.181Z,1002.93
2023-05-05T13:20:41.179Z,1002.93
2023-05-05T13:21:41.153Z,1002.90
2023-05-05T13:22:41.127Z,1002.99
2023-05-05T13:23:41.125Z,1002.94
2023-05-05T13:24:51.473Z,1002.94
2023-05-05T13:25:41.125Z,1002.87
2023-05-05T13:26:41.083Z,1002.84
2023-05-05T13:27:41.099Z,1002.86
2023-05-05T13:28:41.083Z,1002.84
2023-05-05T13:29:41.083Z,1002.83
2023-05-05T13:30:41.064Z,1002.77
2023-05-05T13:31:41.148Z,1002.74
2023-05-05T13:32:41.070Z,1002.72
2023-05-05T13:33:41.020Z,1002.68
2023-05-05T13:34:41.028Z,1002.66
2023-05-05T13:35:41.042Z,1002.71
2023-05-05T13:36:41.002Z,1002.76
2023-05-05T13:37:41.000Z,1002.71
2023-05-05T13:38:40.962Z,1002.64
2023-05-05T13:39:40.961Z,1002.60
2023-05-05T13:40:40.951Z,1002.58
2023-05-05T13:41:40.979Z,1002.64
2023-05-05T13:42:40.929Z,1002.58
2023-05-05T13:43:40.933Z,1002.64
2023-05-05T13:44:40.891Z,1002.64
2023-05-05T13:45:42.001Z,1002.54
2023-05-05T13:46:40.882Z,1002.51
2023-05-05T13:47:41.026Z,1002.57
2023-05-05T13:48:40.868Z,1002.47
2023-05-05T13:49:40.864Z,1002.45
2023-05-05T13:50:40.831Z,1002.45
2023-05-05T13:51:40.863Z,1002.45
2023-05-05T13:52:40.821Z,1002.50
2023-05-05T13:53:40.880Z,1002.40
2023-05-05T13:54:40.820Z,1002.44
2023-05-05T13:55:40.817Z,1002.51
2023-05-05T13:56:40.792Z,1002.45
2023-05-05T13:57:40.771Z,1002.47
2023-05-05T13:58:40.754Z,1002.45
2023-05-05T13:59:40.809Z,1002.41
2023-05-05T14:00:40.844Z,1002.45
2023-05-05T14:01:40.769Z,1002.44
2023-05-05T14:02:40.743Z,1002.50
2023-05-05T14:03:40.743Z,1002.40
2023-05-05T14:04:40.709Z,1002.48
2023-05-05T14:05:40.693Z,1002.41
2023-05-05T14:06:40.689Z,1002.41
2023-05-05T14:07:40.695Z,1002.39
2023-05-05T14:08:40.649Z,1002.44
2023-05-05T14:09:40.638Z,1002.39
2023-05-05T14:10:40.688Z,1002.44
2023-05-05T14:11:40.658Z,1002.46
2023-05-05T14:12:40.634Z,1002.42
2023-05-05T14:13:40.632Z,1002.49
2023-05-05T14:14:40.571Z,1002.41
2023-05-05T14:15:40.598Z,1002.48
2023-05-05T14:16:40.643Z,1002.41
2023-05-05T14:17:40.658Z,1002.52
2023-05-05T14:18:40.563Z,1002.46
2023-05-05T14:19:40.559Z,1002.43
2023-05-05T14:20:40.515Z,1002.40
2023-05-05T14:21:40.532Z,1002.41
2023-05-05T14:22:40.504Z,1002.39
2023-05-05T14:23:40.551Z,1002.52
2023-05-05T14:24:40.494Z,1002.42
2023-05-05T14:25:40.478Z,1002.42
2023-05-05T14:26:40.478Z,1002.34
2023-05-05T14:27:40.479Z,1002.37
2023-05-05T14:28:40.454Z,1002.41
2023-05-05T14:29:40.504Z,1002.39
2023-05-05T14:30:40.429Z,1002.48
2023-05-05T14:31:40.491Z,1002.47
2023-05-05T14:32:40.454Z,1002.38
2023-05-05T14:33:40.414Z,1002.40
2023-05-05T14:34:40.367Z,1002.43
2023-05-05T14:35:40.394Z,1002.43
2023-05-05T14:36:40.384Z,1002.42
2023-05-05T14:37:40.382Z,1002.43
2023-05-05T14:38:40.400Z,1002.43
2023-05-05T14:39:40.350Z,1002.47
2023-05-05T14:40:40.305Z,1002.40
2023-05-05T14:41:40.326Z,1002.44
2023-05-05T14:42:40.328Z,1002.45
2023-05-05T14:43:40.302Z,1002.48
2023-05-05T14:44:40.479Z,1002.49
2023-05-05T14:45:40.293Z,1002.54
2023-05-05T14:46:40.251Z,1002.54
2023-05-05T14:47:40.318Z,1002.56
2023-05-05T14:48:40.254Z,1002.55
2023-05-05T14:49:40.258Z,1002.52
2023-05-05T14:50:40.201Z,1002.55
2023-05-05T14:51:40.205Z,1002.50
2023-05-05T14:52:40.224Z,1002.51
2023-05-05T14:53:40.207Z,1002.50
2023-05-05T14:54:40.214Z,1002.50
2023-05-05T14:55:40.191Z,1002.49
2023-05-05T14:56:40.139Z,1002.50
2023-05-05T14:57:40.151Z,1002.49
2023-05-05T14:58:40.172Z,1002.49
2023-05-05T14:59:40.166Z,1002.51
2023-05-05T15:00:40.159Z,1002.52
2023-05-05T15:01:40.154Z,1002.59
2023-05-05T15:02:40.341Z,1002.57
2023-05-05T15:03:40.147Z,1002.56
2023-05-05T15:04:40.067Z,1002.60
2023-05-05T15:05:40.090Z,1002.56
2023-05-05T15:06:40.062Z,1002.58
2023-05-05T15:07:40.101Z,1002.56
2023-05-05T15:08:40.012Z,1002.60
2023-05-05T15:09:40.044Z,1002.65
2023-05-05T15:10:40.019Z,1002.63
2023-05-05T15:11:40.016Z,1002.61
2023-05-05T15:12:40.074Z,1002.60
2023-05-05T15:13:39.981Z,1002.63
2023-05-05T15:14:39.966Z,1002.64
2023-05-05T15:15:39.994Z,1002.65
2023-05-05T15:16:40.137Z,1002.64
2023-05-05T15:17:39.960Z,1002.67
2023-05-05T15:18:39.951Z,1002.66
2023-05-05T15:19:39.912Z,1002.68
2023-05-05T15:20:39.892Z,1002.71
2023-05-05T15:21:39.890Z,1002.71
2023-05-05T15:22:39.875Z,1002.76
2023-05-05T15:23:39.897Z,1002.75
2023-05-05T15:24:39.875Z,1002.85
2023-05-05T15:25:39.847Z,1002.83
2023-05-05T15:26:39.815Z,1002.84
2023-05-05T15:27:39.827Z,1002.74
2023-05-05T15:28:39.819Z,1003.27
2023-05-05T15:29:39.858Z,1003.29
2023-05-05T15:30:39.812Z,1003.38
2023-05-05T15:31:39.797Z,1003.25
2023-05-05T15:32:39.765Z,1003.27
2023-05-05T15:33:39.775Z,1003.30
2023-05-05T15:34:39.747Z,1003.41
2023-05-05T15:35:39.740Z,1003.36
2023-05-05T15:36:39.778Z,1003.37
2023-05-05T15:37:39.716Z,1003.35
2023-05-05T15:38:39.698Z,1003.34
2023-05-05T15:39:39.714Z,1003.31
2023-05-05T15:40:39.692Z,1003.40
2023-05-05T15:41:39.699Z,1003.30
2023-05-05T15:42:39.698Z,1003.31
2023-05-05T15:43:39.675Z,1003.32
2023-05-05T15:44:39.626Z,1003.29
2023-05-05T15:45:39.669Z,1003.27
2023-05-05T15:46:39.741Z,1003.29
2023-05-05T15:47:39.677Z,1003.25
2023-05-05T15:48:39.640Z,1003.27
2023-05-05T15:49:39.611Z,1003.28
2023-05-05T15:50:39.562Z,1003.27
2023-05-05T15:51:39.600Z,1003.25
2023-05-05T15:52:39.561Z,1003.23
2023-05-05T15:53:39.608Z,1003.25
2023-05-05T15:54:39.541Z,1003.27
2023-05-05T15:55:39.543Z,1003.25
2023-05-05T15:56:39.500Z,1003.21
2023-05-05T15:57:39.519Z,1003.14
2023-05-05T15:58:39.476Z,1003.13
2023-05-05T15:59:39.507Z,1003.15
2023-05-05T16:00:39.457Z,1003.12
2023-05-05T16:01:39.594Z,1003.08
2023-05-05T16:02:39.474Z,1003.10
2023-05-05T16:03:39.468Z,1003.13
2023-05-05T16:04:39.437Z,1003.14
2023-05-05T16:05:39.468Z,1003.17
2023-05-05T16:06:39.400Z,1003.16
2023-05-05T16:07:39.415Z,1003.16
2023-05-05T16:08:39.403Z,1003.16
2023-05-05T16:09:39.399Z,1003.15
2023-05-05T16:10:39.363Z,1003.12
2023-05-05T16:11:39.390Z,1003.14
2023-05-05T16:12:39.386Z,1003.15
2023-05-05T16:13:39.369Z,1003.13
2023-05-05T16:14:39.318Z,1003.15
2023-05-05T16:15:39.340Z,1003.18
2023-05-05T16:16:39.364Z,1003.19
2023-05-05T16:17:39.360Z,1003.18
2023-05-05T16:18:39.275Z,1003.13
2023-05-05T16:19:39.287Z,1003.15
2023-05-05T16:20:39.260Z,1003.17
2023-05-05T16:21:39.256Z,1003.18
2023-05-05T16:22:39.244Z,1003.21
2023-05-05T16:23:39.238Z,1003.22
2023-05-05T16:24:39.421Z,1003.24
2023-05-05T16:25:39.193Z,1003.24
2023-05-05T16:26:39.209Z,1003.26
2023-05-05T16:27:39.184Z,1003.28
2023-05-05T16:28:39.248Z,1003.27
2023-05-05T16:29:39.146Z,1003.27
2023-05-05T16:30:39.180Z,1003.28
2023-05-05T16:31:39.180Z,1003.28
2023-05-05T16:32:39.207Z,1003.31
2023-05-05T16:33:39.149Z,1003.33
2023-05-05T16:34:39.136Z,1003.33
2023-05-05T16:35:39.094Z,1003.34
2023-05-05T16:36:39.104Z,1003.32
2023-05-05T16:37:39.099Z,1003.32